Report METAR

 

LIML - Milano/Linate, Italy
Distance from station: NO 27km
Dati ricevuti: 28/01/2023 07:20
Sereno
Sereno
 Vento da Variabile
Vento: Variabile 2 km/h
Temperatura: -1°C
P.to Rugiada: -2°C
Umidità: 93%
Barometro: 1018 hPa
Summary: Sereno
Visibility: superiore a 10 km
2023/01/28 06:20 LIML 280620Z VRB01KT CAVOK M01/M02 Q1018 NOSIG
LIME - Bergamo/Orio Ser, Italy
Distance from station: NNE 43km
Dati ricevuti: 28/01/2023 07:20
Parz. nuvoloso
Parz. nuvoloso
 Vento da N
Vento: N 6 km/h
Temperatura: 0°C
P.to Rugiada: -4°C
Umidità: 75%
Barometro: 1017 hPa
Nuvole: Parz. nuvoloso
Visibility: 10 km
Cloud details: Parz. nuvoloso 2743 m
2023/01/28 06:20 LIME 280620Z 35003KT 9999 SCT090 00/M04 Q1017 NOSIG
 
LIMS - Piacenza, it-Afb, Italy
Distance from station: SSE 45km
Dati ricevuti: 28/01/2023 06:55
Sereno
Sereno
 Vento da OSO
Vento: OSO 11 km/h
Temperatura: -1°C
Temperatura Vento: -5°C
P.to Rugiada: -1°C
Umidità: 100%
Barometro: 1016 hPa
Summary: Sereno
Visibility: superiore a 10 km
2023/01/28 05:55 LIMS 280555Z 25006KT CAVOK M01/M01 Q1016
LIPO - Brescia/Montichi, Italy
Distance from station: ENE 65km
Dati ricevuti: 28/01/2023 07:20
Few Clouds
Few Clouds
 Vento da NNO
Vento: NNO 4 km/h
Temperatura: 0°C
P.to Rugiada: -2°C
Umidità: 87%
Barometro: 1018 hPa
Nuvole: Few Clouds
Visibility: 10 km
Cloud details: Few Clouds 2530 m
2023/01/28 06:20 LIPO 280620Z AUTO 34002KT 9999 FEW083/// M00/M02 Q1018